Time;durP1;ratioP1;P1;durP2;ratioP2;P2;SDS_P1;SDS_P2;PMS_P1;PMS_P2;Temp;Humidity;BMP_temperature;BMP_pressure;BME280_temperature;BME280_humidity;BME280_pressure;Samples;Min_cycle;Max_cycle;Signal;HPM_P1;HPM_P2
2022/02/06 00:02:06;;;;;;;;;5.50;5.50;;;;;9.64;100.00;101954.75;5072465;28;45373;-81
2022/02/06 00:04:41;;;;;;;;;3.00;3.00;;;;;9.53;100.00;101928.16;5090551;28;45298;-84
2022/02/06 00:07:08;;;;;;;;;4.00;2.25;;;;;9.58;100.00;101943.19;5068370;28;46691;-84
2022/02/06 00:09:34;;;;;;;;;4.25;3.50;;;;;9.44;100.00;101906.06;5066115;28;45415;-87
2022/02/06 00:12:00;;;;;;;;;3.00;3.00;;;;;9.53;100.00;101916.16;5083545;27;45208;-81
2022/02/06 00:14:25;;;;;;;;;5.00;5.00;;;;;9.57;100.00;101915.53;5084321;28;45622;-84
2022/02/06 00:16:51;;;;;;;;;3.75;3.50;;;;;9.59;100.00;101908.78;5086322;28;46015;-87
2022/02/06 00:19:17;;;;;;;;;4.00;3.00;;;;;9.62;100.00;101908.09;5078306;27;45451;-89
2022/02/06 00:21:44;;;;;;;;;7.50;4.75;;;;;9.69;100.00;101917.16;5043777;28;45431;-89
2022/02/06 00:24:16;;;;;;;;;4.25;4.25;;;;;9.68;100.00;101905.94;5042313;28;45377;-87
2022/02/06 00:26:54;;;;;;;;;5.00;3.25;;;;;9.70;100.00;101906.94;5041955;28;46313;-79
2022/02/06 00:29:30;;;;;;;;;3.75;3.00;;;;;9.72;100.00;101902.72;5075275;28;45314;-85
2022/02/06 00:32:00;;;;;;;;;6.75;5.00;;;;;9.77;100.00;101913.41;5082356;27;45282;-91
2022/02/06 00:39:48;;;;;;;;;5.25;2.25;;;;;9.83;100.00;101884.44;5032905;28;45328;-90
2022/02/06 00:42:14;;;;;;;;;3.00;2.00;;;;;9.83;100.00;101880.16;5065127;28;45383;-90
2022/02/06 00:44:40;;;;;;;;;8.75;3.25;;;;;9.71;100.00;101879.38;5050874;28;45517;-89
2022/02/06 00:47:06;;;;;;;;;3.75;3.75;;;;;9.72;100.00;101869.09;5081867;27;45993;-91
2022/02/06 00:49:32;;;;;;;;;6.75;2.25;;;;;9.78;100.00;101881.53;5082216;27;45246;-91
2022/02/06 00:52:26;;;;;;;;;4.75;2.50;;;;;9.74;100.00;101861.47;5083506;28;45279;-92
2022/02/06 00:54:51;;;;;;;;;3.00;1.00;;;;;9.70;100.00;101895.66;5081131;27;44783;-91
2022/02/06 00:57:17;;;;;;;;;4.00;2.25;;;;;9.66;100.00;101875.59;5063191;28;46654;-90
2022/02/06 00:59:43;;;;;;;;;2.00;2.00;;;;;9.63;100.00;101875.38;5081821;27;45305;-90
2022/02/06 01:02:09;;;;;;;;;4.50;2.25;;;;;9.68;100.00;101877.47;5080250;27;45450;-88
2022/02/06 01:04:34;;;;;;;;;6.50;4.25;;;;;9.66;100.00;101873.91;5063519;28;45683;-89
2022/02/06 01:07:02;;;;;;;;;3.50;1.50;;;;;9.65;100.00;101869.50;5081318;28;45596;-90
2022/02/06 01:09:27;;;;;;;;;8.00;3.00;;;;;9.67;100.00;101873.09;5062665;28;45496;-90
2022/02/06 01:11:54;;;;;;;;;2.50;2.00;;;;;9.66;100.00;101866.13;5081410;28;45387;-87
2022/02/06 01:17:21;;;;;;;;;4.75;4.25;;;;;9.69;100.00;101871.50;5083159;27;45243;-87
2022/02/06 01:19:44;;;;;;;;;4.50;4.00;;;;;9.65;100.00;101868.63;5074565;27;45801;-90
2022/02/06 01:22:13;;;;;;;;;4.00;3.00;;;;;9.60;100.00;101866.63;5082507;28;45316;-87
2022/02/06 01:24:49;;;;;;;;;4.00;3.00;;;;;9.64;100.00;101864.25;5084376;27;45322;-90
2022/02/06 01:27:20;;;;;;;;;2.00;2.00;;;;;9.66;100.00;101862.66;5080350;28;45330;-85
2022/02/06 01:32:16;;;;;;;;;3.00;2.25;;;;;9.64;100.00;101866.84;5081028;28;45345;-83
2022/02/06 01:34:57;;;;;;;;;2.00;1.00;;;;;9.65;100.00;101854.00;5062020;28;45240;-80
2022/02/06 01:37:37;;;;;;;;;2.75;2.75;;;;;9.67;100.00;101854.09;5079753;28;46094;-84
2022/02/06 01:40:09;;;;;;;;;2.25;1.50;;;;;9.63;100.00;101855.59;5063970;28;45684;-85
2022/02/06 01:42:42;;;;;;;;;2.00;2.00;;;;;9.63;100.00;101850.41;5085790;28;45363;-84
2022/02/06 01:45:28;;;;;;;;;2.00;2.00;;;;;9.60;100.00;101851.13;5082928;28;45336;-90
2022/02/06 02:02:31;;;;;;;;;5.00;2.25;;;;;9.65;100.00;101783.31;5083147;28;45461;-86
2022/02/06 02:04:49;;;;;;;;;2.75;2.75;;;;;9.67;100.00;101786.84;5075462;28;45355;-88
2022/02/06 02:26:26;;;;;;;;;4.75;2.00;;;;;9.66;100.00;101779.94;5074765;28;45489;-90
2022/02/06 02:45:13;;;;;;;;;1.50;1.50;;;;;9.64;100.00;101758.25;5084266;28;45481;-90
2022/02/06 02:47:43;;;;;;;;;6.75;2.25;;;;;9.65;100.00;101760.03;5064528;28;45295;-90
2022/02/06 02:50:21;;;;;;;;;3.00;2.00;;;;;9.66;100.00;101760.13;5082913;27;45264;-91
2022/02/06 03:03:29;;;;;;;;;2.00;2.00;;;;;9.62;100.00;101700.38;5048281;28;45485;-90
2022/02/06 03:05:56;;;;;;;;;2.50;2.00;;;;;9.63;100.00;101715.09;5082627;28;45375;-89
2022/02/06 03:08:22;;;;;;;;;0.75;0.50;;;;;9.60;100.00;101719.25;5083050;28;45508;-89
2022/02/06 03:10:54;;;;;;;;;3.00;1.00;;;;;9.56;100.00;101682.78;5080666;27;45596;-89
2022/02/06 03:13:22;;;;;;;;;1.75;1.00;;;;;9.62;100.00;101687.44;5083517;28;45342;-89
2022/02/06 03:16:02;;;;;;;;;1.50;1.50;;;;;9.63;100.00;101679.75;5089532;28;45508;-89
2022/02/06 03:18:31;;;;;;;;;1.25;1.25;;;;;9.67;100.00;101662.75;5068170;28;45329;-86
2022/02/06 03:21:00;;;;;;;;;1.50;1.50;;;;;9.69;100.00;101679.25;5084244;28;45596;-89
2022/02/06 03:23:28;;;;;;;;;1.75;1.75;;;;;9.65;100.00;101675.59;5083337;27;45343;-90
2022/02/06 03:25:54;;;;;;;;;2.50;2.50;;;;;9.65;100.00;101677.28;5086344;27;46049;-89
2022/02/06 03:28:22;;;;;;;;;2.00;2.00;;;;;9.68;100.00;101683.53;5084910;28;45401;-90
2022/02/06 03:30:48;;;;;;;;;1.00;0.50;;;;;9.73;100.00;101689.00;5065656;28;45509;-91
2022/02/06 03:33:15;;;;;;;;;1.25;1.00;;;;;9.75;100.00;101688.28;5083028;28;45506;-89
2022/02/06 03:35:41;;;;;;;;;3.25;2.00;;;;;9.71;100.00;101675.06;5082744;27;45477;-87
2022/02/06 03:38:07;;;;;;;;;2.00;2.00;;;;;9.72;100.00;101689.78;5067916;28;45435;-90
2022/02/06 03:40:41;;;;;;;;;3.25;2.00;;;;;9.68;100.00;101680.97;5082287;27;45543;-90
2022/02/06 03:43:19;;;;;;;;;2.00;2.00;;;;;9.62;100.00;101671.91;5081866;27;45439;-90
2022/02/06 03:45:51;;;;;;;;;2.75;1.50;;;;;9.61;100.00;101681.34;5063257;28;45263;-90
2022/02/06 03:48:24;;;;;;;;;4.75;2.25;;;;;9.60;100.00;101687.34;5079061;28;45225;-90
2022/02/06 03:50:52;;;;;;;;;2.75;2.00;;;;;9.56;100.00;101670.72;5082639;27;45430;-90
2022/02/06 03:53:22;;;;;;;;;2.00;1.50;;;;;9.55;100.00;101679.31;5082218;27;46497;-87
2022/02/06 03:55:48;;;;;;;;;2.00;1.75;;;;;9.50;100.00;101656.56;5079689;28;45947;-90
2022/02/06 03:58:14;;;;;;;;;4.00;1.75;;;;;9.48;100.00;101652.97;5078657;28;45320;-88
2022/02/06 04:00:40;;;;;;;;;5.00;2.00;;;;;9.48;100.00;101633.16;5080392;27;45547;-88
2022/02/06 04:03:06;;;;;;;;;2.50;2.25;;;;;9.42;100.00;101661.22;5082709;27;45901;-90
2022/02/06 04:05:32;;;;;;;;;3.00;3.00;;;;;9.44;100.00;101663.09;5084981;27;45220;-92
2022/02/06 04:07:58;;;;;;;;;5.00;3.25;;;;;9.43;100.00;101656.16;5079618;28;45204;-90
2022/02/06 04:10:33;;;;;;;;;2.25;2.00;;;;;9.49;100.00;101681.50;5078742;28;45600;-86
2022/02/06 04:13:01;;;;;;;;;2.25;1.50;;;;;9.42;100.00;101664.69;5081231;27;45419;-92
2022/02/06 04:15:36;;;;;;;;;1.25;1.25;;;;;9.43;100.00;101647.50;5083246;28;45279;-88
2022/02/06 04:18:17;;;;;;;;;5.00;4.00;;;;;9.43;100.00;101634.59;5083877;28;45284;-86
2022/02/06 04:20:43;;;;;;;;;3.00;2.25;;;;;9.42;100.00;101630.22;5085695;28;45276;-80
2022/02/06 04:23:10;;;;;;;;;2.00;2.00;;;;;9.41;100.00;101644.81;5090472;28;45799;-78
2022/02/06 04:25:36;;;;;;;;;2.00;2.00;;;;;9.40;100.00;101616.28;5094491;28;45311;-83
2022/02/06 04:28:02;;;;;;;;;1.75;1.00;;;;;9.34;100.00;101623.69;5091762;28;44725;-85
2022/02/06 04:30:28;;;;;;;;;2.00;1.50;;;;;9.33;100.00;101624.47;5096369;28;45353;-88
2022/02/06 04:32:54;;;;;;;;;3.25;2.50;;;;;9.29;100.00;101585.50;5098193;28;45283;-89
2022/02/06 04:35:29;;;;;;;;;3.50;2.50;;;;;9.32;100.00;101604.59;5085326;28;45906;-91
2022/02/06 04:46:34;;;;;;;;;4.00;4.00;;;;;9.35;100.00;101573.75;5080000;28;45310;-90
2022/02/06 04:54:25;;;;;;;;;2.00;2.00;;;;;9.37;100.00;101592.84;5082558;28;45185;-89
2022/02/06 05:16:30;;;;;;;;;1.00;1.00;;;;;9.47;100.00;101530.56;5028490;28;46013;-89
2022/02/06 05:24:52;;;;;;;;;3.00;2.00;;;;;9.52;100.00;101521.41;5057076;28;45360;-88
2022/02/06 05:30:04;;;;;;;;;3.00;1.50;;;;;9.55;100.00;101506.09;5081744;28;45327;-93
2022/02/06 05:32:39;;;;;;;;;2.00;2.00;;;;;9.64;100.00;101503.16;5081128;28;45504;-89
2022/02/06 05:35:08;;;;;;;;;1.00;1.00;;;;;9.64;100.00;101510.03;5082739;27;45512;-91
2022/02/06 05:37:34;;;;;;;;;1.50;1.50;;;;;9.64;100.00;101508.31;5080820;27;46466;-80
2022/02/06 05:40:00;;;;;;;;;3.50;2.00;;;;;9.67;100.00;101518.84;5080267;28;46597;-89
2022/02/06 05:42:26;;;;;;;;;4.00;3.50;;;;;9.66;100.00;101501.56;5082064;28;45372;-88
2022/02/06 05:44:55;;;;;;;;;1.00;1.00;;;;;9.63;100.00;101511.72;5065335;28;45539;-89
2022/02/06 05:47:22;;;;;;;;;4.25;2.00;;;;;9.59;100.00;101484.78;5081345;27;46161;-91
2022/02/06 05:49:47;;;;;;;;;2.00;1.75;;;;;9.57;100.00;101475.16;5084369;27;45351;-86
2022/02/06 05:52:13;;;;;;;;;1.00;1.00;;;;;9.54;100.00;101488.81;5082824;28;45402;-87
2022/02/06 05:54:39;;;;;;;;;2.50;2.00;;;;;9.52;100.00;101492.97;5081688;28;45425;-87
2022/02/06 05:57:05;;;;;;;;;1.00;1.00;;;;;9.50;100.00;101488.53;5080656;28;45890;-86
2022/02/06 05:59:33;;;;;;;;;3.00;2.50;;;;;9.48;100.00;101479.78;5084167;28;45533;-83
2022/02/06 06:01:58;;;;;;;;;2.00;2.00;;;;;9.50;100.00;101471.31;5083213;27;45758;-90
2022/02/06 06:04:24;;;;;;;;;2.00;2.00;;;;;9.51;100.00;101472.19;5081353;28;45232;-84
2022/02/06 06:06:50;;;;;;;;;3.00;2.75;;;;;9.53;100.00;101468.91;5080706;28;45707;-89
2022/02/06 06:09:16;;;;;;;;;1.00;1.00;;;;;9.56;100.00;101457.88;5080769;27;45240;-88
2022/02/06 06:11:41;;;;;;;;;2.00;1.25;;;;;9.60;100.00;101467.59;5093333;27;45386;-84
2022/02/06 06:14:07;;;;;;;;;3.00;2.00;;;;;9.58;100.00;101477.81;5082538;27;45412;-83
2022/02/06 06:16:33;;;;;;;;;1.50;1.50;;;;;9.60;100.00;101467.59;5062259;28;47067;-84
2022/02/06 06:19:01;;;;;;;;;1.50;1.00;;;;;9.64;100.00;101448.84;5080027;27;45272;-89
2022/02/06 06:21:28;;;;;;;;;1.75;0.50;;;;;9.67;100.00;101442.97;5080620;28;45407;-87
2022/02/06 06:23:55;;;;;;;;;2.00;2.00;;;;;9.71;100.00;101457.88;5062887;28;45547;-90
2022/02/06 06:26:23;;;;;;;;;1.00;1.00;;;;;9.72;100.00;101438.97;5082087;28;46096;-85
2022/02/06 06:28:49;;;;;;;;;2.75;2.00;;;;;9.74;100.00;101433.06;5073933;28;45749;-86
2022/02/06 06:31:15;;;;;;;;;1.00;1.00;;;;;9.74;100.00;101433.06;5083310;27;45386;-86
2022/02/06 06:33:41;;;;;;;;;3.00;2.00;;;;;9.80;100.00;101435.13;5085969;27;45329;-81
2022/02/06 06:36:06;;;;;;;;;2.25;1.75;;;;;9.79;100.00;101443.69;5081206;27;45437;-86
2022/02/06 06:38:33;;;;;;;;;1.25;1.00;;;;;9.78;100.00;101470.34;5083888;28;45366;-84
2022/02/06 06:41:02;;;;;;;;;1.00;1.00;;;;;9.78;100.00;101459.13;5080413;27;45353;-87
2022/02/06 06:43:28;;;;;;;;;3.00;2.00;;;;;9.78;100.00;101454.84;5052417;28;45290;-86
2022/02/06 06:45:54;;;;;;;;;1.00;1.00;;;;;9.82;100.00;101453.34;5061649;28;46570;-84
2022/02/06 06:48:20;;;;;;;;;1.00;1.00;;;;;9.84;100.00;101455.22;5085410;27;45459;-89
2022/02/06 06:50:46;;;;;;;;;2.00;1.00;;;;;9.83;100.00;101449.91;5080603;27;45299;-86
2022/02/06 06:53:12;;;;;;;;;0.00;0.00;;;;;9.86;100.00;101435.50;5073721;28;45649;-85
2022/02/06 06:55:42;;;;;;;;;1.00;1.00;;;;;9.87;100.00;101420.88;5085577;27;45347;-83
2022/02/06 06:58:19;;;;;;;;;1.00;1.00;;;;;9.86;100.00;101437.19;5082167;28;45333;-88
2022/02/06 07:03:15;;;;;;;;;2.00;2.00;;;;;9.90;100.00;101431.41;5082830;28;45474;-89
2022/02/06 07:05:40;;;;;;;;;3.75;1.00;;;;;9.87;100.00;101416.59;5082159;27;45402;-88
2022/02/06 07:08:06;;;;;;;;;1.00;1.00;;;;;9.93;100.00;101421.22;5079577;28;45457;-87
2022/02/06 07:10:32;;;;;;;;;1.00;1.00;;;;;9.92;100.00;101411.69;5081625;28;45413;-87
2022/02/06 07:12:58;;;;;;;;;2.50;2.00;;;;;9.95;100.00;101409.25;5083004;27;45482;-86
2022/02/06 07:15:24;;;;;;;;;1.75;1.25;;;;;9.98;100.00;101398.22;5082825;28;45393;-84
2022/02/06 07:17:50;;;;;;;;;2.25;2.00;;;;;10.01;100.00;101396.69;5082853;28;45307;-87
2022/02/06 07:20:15;;;;;;;;;1.00;1.00;;;;;9.97;100.00;101407.66;5079773;27;45306;-87
2022/02/06 07:22:44;;;;;;;;;0.75;0.75;;;;;9.99;100.00;101387.94;5072064;27;45525;-81
2022/02/06 07:25:09;;;;;;;;;1.00;1.00;;;;;10.00;100.00;101394.91;5079997;28;46111;-90
2022/02/06 07:27:38;;;;;;;;;2.00;0.50;;;;;10.04;100.00;101414.06;5061710;28;45333;-91
2022/02/06 07:30:07;;;;;;;;;2.00;1.00;;;;;10.03;100.00;101394.16;5081347;27;45545;-88
2022/02/06 07:32:38;;;;;;;;;1.25;1.25;;;;;9.97;100.00;101420.59;5079685;27;45292;-90
2022/02/06 07:35:06;;;;;;;;;1.75;1.00;;;;;9.98;100.00;101400.81;5079200;28;45993;-90
2022/02/06 07:37:32;;;;;;;;;2.00;1.00;;;;;9.94;100.00;101412.63;5080614;28;45686;-89
2022/02/06 07:39:58;;;;;;;;;1.00;1.00;;;;;9.93;100.00;101372.09;5079776;28;45422;-89
2022/02/06 07:42:25;;;;;;;;;0.50;0.50;;;;;9.92;100.00;101359.97;5062689;27;45255;-85
2022/02/06 07:44:51;;;;;;;;;0.75;0.75;;;;;9.90;100.00;101382.25;5082614;28;46209;-90
2022/02/06 07:47:22;;;;;;;;;1.00;1.00;;;;;9.94;100.00;101368.66;5085154;28;44749;-90
2022/02/06 07:49:50;;;;;;;;;1.50;1.00;;;;;9.93;100.00;101358.25;5078909;28;45220;-88
2022/02/06 07:52:22;;;;;;;;;1.00;1.00;;;;;9.95;100.00;101359.22;5079065;28;45476;-87
2022/02/06 07:54:48;;;;;;;;;1.50;1.50;;;;;9.97;100.00;101370.56;5080271;27;46504;-89
2022/02/06 07:57:18;;;;;;;;;3.75;1.25;;;;;9.99;100.00;101346.56;5082239;28;45327;-87
2022/02/06 07:59:46;;;;;;;;;1.00;1.00;;;;;10.01;100.00;101352.72;5080044;27;45398;-83
2022/02/06 08:02:12;;;;;;;;;2.50;1.75;;;;;10.00;100.00;101350.91;5074909;27;45415;-80
2022/02/06 08:04:39;;;;;;;;;3.25;2.50;;;;;10.04;100.00;101339.91;5075341;28;45466;-84
2022/02/06 08:07:06;;;;;;;;;2.00;2.00;;;;;10.05;100.00;101320.13;5086510;27;45357;-81
2022/02/06 08:11:58;;;;;;;;;1.75;1.75;;;;;10.07;100.00;101308.19;5077773;28;45557;-84
2022/02/06 08:17:08;;;;;;;;;1.75;1.00;;;;;10.11;100.00;101310.09;5075550;28;45984;-81
2022/02/06 08:19:35;;;;;;;;;3.00;1.00;;;;;10.10;100.00;101329.03;5075200;27;45530;-78
2022/02/06 08:22:00;;;;;;;;;1.00;1.00;;;;;10.09;100.00;101301.41;5075678;28;45651;-84
2022/02/06 08:24:26;;;;;;;;;0.75;0.75;;;;;10.11;100.00;101314.41;5075340;28;45500;-83
2022/02/06 08:26:51;;;;;;;;;3.00;3.00;;;;;10.10;100.00;101302.28;5075329;28;45223;-83
2022/02/06 08:29:18;;;;;;;;;1.75;1.00;;;;;10.13;100.00;101295.56;5079166;28;45366;-87
2022/02/06 08:31:46;;;;;;;;;2.50;1.00;;;;;10.11;100.00;101289.41;5089724;28;45658;-95
2022/02/06 08:34:12;;;;;;;;;3.25;0.25;;;;;10.07;100.00;101284.91;5082687;28;45730;-88
2022/02/06 08:36:38;;;;;;;;;1.75;1.00;;;;;10.07;100.00;101290.06;5077318;28;45340;-84
2022/02/06 08:39:04;;;;;;;;;0.75;0.75;;;;;10.04;100.00;101297.66;5057831;28;45322;-86
2022/02/06 08:41:29;;;;;;;;;1.00;1.00;;;;;10.11;100.00;101286.81;5059737;28;45575;-88
2022/02/06 08:43:55;;;;;;;;;0.00;0.00;;;;;10.05;100.00;101279.63;5058091;28;46563;-84
2022/02/06 08:46:22;;;;;;;;;0.50;0.25;;;;;10.07;100.00;101296.13;5086052;28;45276;-91
2022/02/06 08:48:48;;;;;;;;;1.75;1.75;;;;;10.08;100.00;101255.63;5073244;27;45454;-90
2022/02/06 08:51:13;;;;;;;;;0.00;0.00;;;;;10.06;100.00;101276.22;5088342;28;45616;-89
2022/02/06 08:53:52;;;;;;;;;1.25;1.00;;;;;10.11;100.00;101268.72;5079017;28;46244;-85
2022/02/06 08:56:17;;;;;;;;;3.00;3.00;;;;;10.13;100.00;101236.06;5077399;28;45527;-83
2022/02/06 08:58:46;;;;;;;;;2.75;0.25;;;;;10.16;100.00;101241.41;5077724;28;45352;-89
2022/02/06 09:01:12;;;;;;;;;1.50;0.75;;;;;10.17;100.00;101239.69;5073887;27;45639;-86
2022/02/06 09:03:37;;;;;;;;;2.50;1.00;;;;;10.11;100.00;101234.19;5076583;28;46060;-84
2022/02/06 09:06:03;;;;;;;;;1.75;0.75;;;;;10.16;100.00;101259.50;5078703;28;45335;-83
2022/02/06 09:08:29;;;;;;;;;4.00;1.00;;;;;10.13;100.00;101212.75;5058253;28;45926;-84
2022/02/06 09:10:55;;;;;;;;;0.50;0.50;;;;;10.22;100.00;101238.25;5078252;28;45562;-84
2022/02/06 09:13:21;;;;;;;;;0.25;0.25;;;;;10.23;100.00;101216.75;5057214;28;47784;-90
2022/02/06 09:15:47;;;;;;;;;3.00;2.00;;;;;10.20;100.00;101242.44;5057573;27;45449;-79
2022/02/06 09:18:12;;;;;;;;;2.00;2.00;;;;;10.21;100.00;101227.00;5057799;28;45469;-90
2022/02/06 09:20:40;;;;;;;;;1.00;1.00;;;;;10.27;100.00;101234.19;5058297;28;45414;-88
2022/02/06 09:23:06;;;;;;;;;2.00;2.00;;;;;10.30;100.00;101212.78;5076847;28;45594;-84
2022/02/06 09:25:32;;;;;;;;;0.25;0.25;;;;;10.32;100.00;101224.97;5076493;28;45318;-78
2022/02/06 09:27:58;;;;;;;;;1.75;1.00;;;;;10.37;100.00;101226.13;5077038;27;45314;-79
2022/02/06 09:30:26;;;;;;;;;1.00;1.00;;;;;10.39;100.00;101213.28;5090678;27;45388;-79
2022/02/06 09:35:19;;;;;;;;;1.00;1.00;;;;;10.42;100.00;101228.09;5075254;27;45776;-82
2022/02/06 09:37:45;;;;;;;;;1.25;1.25;;;;;10.45;100.00;101192.88;5074829;28;45427;-81
2022/02/06 09:40:14;;;;;;;;;0.75;0.75;;;;;10.48;100.00;101193.06;5074798;28;45442;-83
2022/02/06 09:42:43;;;;;;;;;0.50;0.50;;;;;10.52;100.00;101232.94;5055102;28;45711;-81
2022/02/06 09:45:11;;;;;;;;;1.00;1.00;;;;;10.51;100.00;101221.69;5066685;28;45957;-84
2022/02/06 09:47:37;;;;;;;;;2.00;0.75;;;;;10.51;100.00;101180.28;5080013;27;46294;-79
2022/02/06 09:50:04;;;;;;;;;2.00;2.00;;;;;10.58;100.00;101188.34;5078153;28;45233;-80
2022/02/06 09:52:30;;;;;;;;;1.00;1.00;;;;;10.58;100.00;101190.94;5058007;28;45707;-79
2022/02/06 09:55:03;;;;;;;;;4.50;0.25;;;;;10.57;100.00;101186.56;5076490;27;45776;-80
2022/02/06 09:57:32;;;;;;;;;2.00;0.00;;;;;10.58;100.00;101209.06;5078409;28;45439;-86
2022/02/06 09:59:58;;;;;;;;;2.00;1.00;;;;;10.61;100.00;101233.41;5078185;28;45582;-77
2022/02/06 10:02:27;;;;;;;;;1.00;1.00;;;;;10.65;100.00;101200.78;5076980;27;46029;-76
2022/02/06 10:04:53;;;;;;;;;0.00;0.00;;;;;10.63;100.00;101192.94;5077754;28;45244;-84
2022/02/06 10:07:50;;;;;;;;;0.00;0.00;;;;;10.63;100.00;101179.13;5076849;28;45374;-84
2022/02/06 10:10:19;;;;;;;;;1.75;1.50;;;;;10.59;100.00;101200.47;5078515;27;45570;-83
2022/02/06 10:12:53;;;;;;;;;3.50;3.00;;;;;10.62;100.00;101191.16;5077928;28;45359;-83
2022/02/06 10:15:19;;;;;;;;;1.00;1.00;;;;;10.65;100.00;101174.88;5079443;27;45373;-85
2022/02/06 10:17:49;;;;;;;;;1.00;1.00;;;;;10.63;100.00;101171.34;5059989;28;45489;-87
2022/02/06 10:20:24;;;;;;;;;0.00;0.00;;;;;10.68;100.00;101175.94;5084974;28;45563;-92
2022/02/06 10:22:56;;;;;;;;;1.00;1.00;;;;;10.64;100.00;101192.13;5082796;28;45310;-82
2022/02/06 10:25:25;;;;;;;;;0.75;0.00;;;;;10.65;100.00;101185.25;5078780;28;45920;-85
2022/02/06 10:28:04;;;;;;;;;2.00;1.25;;;;;10.61;100.00;101194.56;5043054;28;45516;-85
2022/02/06 10:30:37;;;;;;;;;0.25;0.25;;;;;10.67;100.00;101188.78;5079278;28;45597;-77
2022/02/06 10:33:09;;;;;;;;;1.00;1.00;;;;;10.75;100.00;101190.06;5078319;28;45516;-81
2022/02/06 10:35:47;;;;;;;;;0.00;0.00;;;;;10.77;100.00;101232.47;5077556;28;45395;-78
2022/02/06 10:38:28;;;;;;;;;0.00;0.00;;;;;10.84;100.00;101192.25;5077312;27;45350;-79
2022/02/06 10:41:07;;;;;;;;;1.75;1.00;;;;;10.84;100.00;101168.91;5077506;28;45774;-79
2022/02/06 10:43:35;;;;;;;;;0.00;0.00;;;;;10.77;100.00;101183.25;5077781;27;45536;-78
2022/02/06 10:46:12;;;;;;;;;1.00;1.00;;;;;10.82;100.00;101166.28;5077175;27;45859;-77
2022/02/06 10:48:46;;;;;;;;;0.75;0.75;;;;;10.72;100.00;101160.53;5077176;28;45499;-78
2022/02/06 10:51:43;;;;;;;;;1.00;1.00;;;;;10.77;100.00;101208.28;5076662;28;45390;-84
2022/02/06 10:54:18;;;;;;;;;2.50;2.00;;;;;10.75;100.00;101171.06;5066278;28;45564;-77
2022/02/06 10:57:01;;;;;;;;;0.00;0.00;;;;;10.80;100.00;101160.13;5076018;28;45681;-79
2022/02/06 10:59:28;;;;;;;;;2.00;1.00;;;;;10.84;100.00;101130.06;5077273;28;45442;-80
2022/02/06 11:01:54;;;;;;;;;1.00;1.00;;;;;10.84;100.00;101119.72;5076445;28;45839;-78
2022/02/06 11:07:11;;;;;;;;;4.75;1.00;;;;;10.94;100.00;101121.94;5074420;28;45540;-79
2022/02/06 11:09:37;;;;;;;;;3.00;1.00;;;;;10.94;100.00;101126.25;5075063;28;45494;-78
2022/02/06 11:12:10;;;;;;;;;3.25;2.25;;;;;11.04;100.00;101107.72;5058360;28;45601;-80
2022/02/06 11:14:45;;;;;;;;;0.00;0.00;;;;;11.09;100.00;101134.72;5075618;27;45698;-82
2022/02/06 11:18:39;;;;;;;;;2.00;1.00;;;;;11.37;100.00;101120.50;5016287;27;45578;-79
2022/02/06 11:21:08;;;;;;;;;3.25;1.75;;;;;11.52;100.00;101098.66;5028786;27;45787;-82
2022/02/06 11:23:36;;;;;;;;;2.25;2.25;;;;;11.59;100.00;101096.44;4989208;27;45439;-80
2022/02/06 11:26:04;;;;;;;;;1.25;1.00;;;;;11.64;100.00;101083.66;5009454;27;45377;-79
2022/02/06 11:28:29;;;;;;;;;2.00;1.00;;;;;11.67;100.00;101098.47;5093228;27;45531;-78
2022/02/06 11:30:55;;;;;;;;;0.75;0.75;;;;;11.61;100.00;101110.34;5038850;27;45378;-81
2022/02/06 11:33:22;;;;;;;;;4.00;1.00;;;;;11.58;100.00;101080.81;5010034;27;45264;-78
2022/02/06 11:35:56;;;;;;;;;3.50;1.75;;;;;11.61;100.00;101084.41;4992966;27;45507;-79
2022/02/06 11:44:50;;;;;;;;;2.00;2.00;;;;;11.60;100.00;101093.00;4991249;27;45251;-83
2022/02/06 11:47:18;;;;;;;;;1.75;1.75;;;;;11.61;100.00;101088.69;4991740;27;45237;-90
2022/02/06 11:49:48;;;;;;;;;1.50;0.00;;;;;11.60;100.00;101085.25;4994636;27;45513;-94
2022/02/06 11:52:14;;;;;;;;;0.75;0.75;;;;;11.60;100.00;101089.56;5027366;27;45565;-89
2022/02/06 11:54:48;;;;;;;;;1.00;1.00;;;;;11.58;100.00;101078.22;5102428;27;45409;-89
2022/02/06 11:57:17;;;;;;;;;0.75;0.75;;;;;11.58;100.00;101083.41;5098443;27;45374;-85
2022/02/06 12:00:06;;;;;;;;;1.00;1.00;;;;;11.57;100.00;101072.13;5091315;27;46252;-87
2022/02/06 12:02:39;;;;;;;;;1.00;1.00;;;;;11.57;100.00;101079.03;5003832;27;45381;-90
2022/02/06 12:05:20;;;;;;;;;2.00;0.75;;;;;11.58;100.00;101111.94;4992256;28;45473;-94
2022/02/06 12:07:52;;;;;;;;;1.00;1.00;;;;;11.57;100.00;101061.75;5038551;27;45159;-93
2022/02/06 12:10:41;;;;;;;;;2.00;1.00;;;;;11.61;100.00;101080.91;4992275;27;47745;-88
2022/02/06 12:16:02;;;;;;;;;0.00;0.00;;;;;11.60;100.00;101071.41;4974172;28;45342;-87
2022/02/06 12:18:37;;;;;;;;;2.00;1.00;;;;;11.61;100.00;101062.78;5018107;27;45390;-89
2022/02/06 12:21:21;;;;;;;;;2.00;0.50;;;;;11.64;100.00;101062.03;5016309;27;45380;-83
2022/02/06 12:23:59;;;;;;;;;1.00;1.00;;;;;11.66;100.00;101011.13;5023839;27;45522;-89
2022/02/06 12:28:54;;;;;;;;;3.00;0.00;;;;;11.69;100.00;101027.72;5003425;27;45377;-90
2022/02/06 12:31:33;;;;;;;;;1.75;0.00;;;;;11.72;100.00;101027.81;5048542;27;46134;-89
2022/02/06 12:37:08;;;;;;;;;0.75;0.75;;;;;11.69;100.00;101014.75;5056542;27;45527;-89
2022/02/06 12:39:36;;;;;;;;;0.25;0.25;;;;;11.75;100.00;101042.66;5042325;27;45415;-86
2022/02/06 12:42:11;;;;;;;;;0.25;0.25;;;;;11.66;100.00;101003.34;5018401;28;48116;-86
2022/02/06 12:44:37;;;;;;;;;0.00;0.00;;;;;11.62;100.00;100986.75;4996049;28;45761;-88
2022/02/06 12:47:10;;;;;;;;;0.00;0.00;;;;;11.70;100.00;101010.44;4980777;28;45482;-83
2022/02/06 12:49:36;;;;;;;;;1.00;1.00;;;;;11.65;100.00;101041.34;4997246;28;45256;-81
2022/02/06 12:52:06;;;;;;;;;1.00;1.00;;;;;11.64;100.00;100997.22;5037791;27;45450;-84
2022/02/06 12:54:36;;;;;;;;;1.00;1.00;;;;;11.64;100.00;101024.00;4993116;27;45454;-87
2022/02/06 12:57:05;;;;;;;;;3.75;1.00;;;;;11.65;100.00;101011.94;4997493;28;45410;-86
2022/02/06 12:59:36;;;;;;;;;1.00;1.00;;;;;11.64;100.00;101018.81;5002020;28;45541;-85
2022/02/06 13:02:02;;;;;;;;;1.00;1.00;;;;;11.62;100.00;101002.31;4982950;28;45471;-87
2022/02/06 13:04:31;;;;;;;;;2.00;2.00;;;;;11.67;100.00;101039.72;4978069;28;45392;-84
2022/02/06 13:07:03;;;;;;;;;2.50;2.00;;;;;11.66;100.00;101006.81;5038528;27;45730;-85
2022/02/06 13:09:45;;;;;;;;;3.00;1.00;;;;;11.64;100.00;101005.84;5074456;27;45337;-82
2022/02/06 13:12:35;;;;;;;;;2.50;1.00;;;;;11.64;100.00;101005.84;4976690;28;45718;-89
2022/02/06 13:28:51;;;;;;;;;2.50;0.75;;;;;11.42;100.00;101002.31;4996102;28;45340;-90
2022/02/06 13:31:45;;;;;;;;;2.00;1.50;;;;;11.42;100.00;101001.44;4977931;28;45486;-84
2022/02/06 13:36:43;;;;;;;;;2.00;1.00;;;;;11.38;100.00;100987.47;5022096;27;45455;-77
2022/02/06 13:39:18;;;;;;;;;1.50;1.50;;;;;11.42;100.00;101002.31;4975687;28;45604;-76
2022/02/06 13:41:44;;;;;;;;;2.00;2.00;;;;;11.43;100.00;101013.59;4985140;28;45442;-77
2022/02/06 13:44:23;;;;;;;;;2.25;1.00;;;;;11.38;100.00;100997.84;4991799;28;45638;-78
2022/02/06 13:46:52;;;;;;;;;1.00;1.00;;;;;11.40;100.00;101009.13;5023322;28;45512;-80
2022/02/06 13:49:27;;;;;;;;;2.00;1.00;;;;;11.41;100.00;100979.81;5029826;27;45450;-77
2022/02/06 13:52:06;;;;;;;;;1.75;1.75;;;;;11.42;100.00;100983.31;4992843;28;45387;-76
2022/02/06 13:54:43;;;;;;;;;1.25;1.25;;;;;11.42;100.00;100972.94;5016096;27;45470;-77
2022/02/06 13:57:10;;;;;;;;;1.25;1.25;;;;;11.38;100.00;100964.13;4996498;27;46040;-78
2022/02/06 13:59:39;;;;;;;;;1.00;1.00;;;;;11.41;100.00;100956.47;4965706;28;45423;-79
2022/02/06 14:02:08;;;;;;;;;1.00;1.00;;;;;11.45;100.00;100945.44;4994085;28;45423;-78
2022/02/06 14:04:37;;;;;;;;;1.50;1.50;;;;;11.49;100.00;100942.97;5006530;27;45637;-76
2022/02/06 14:07:10;;;;;;;;;2.00;1.00;;;;;11.49;100.00;100938.66;4993064;28;45250;-75
2022/02/06 14:12:16;;;;;;;;;0.50;0.50;;;;;11.53;100.00;100927.63;4993535;28;45409;-78
2022/02/06 14:14:51;;;;;;;;;0.75;0.75;;;;;11.59;100.00;100914.03;4992658;28;45480;-77